Time;durP1;ratioP1;P1;durP2;ratioP2;P2;SDS_P1;SDS_P2;PMS_P1;PMS_P2;Temp;Humidity;BMP_temperature;BMP_pressure;BME280_temperature;BME280_humidity;BME280_pressure;Samples;Min_cycle;Max_cycle;Signal;HPM_P1;HPM_P2
2022/05/23 00:00:35;;;;;;;1.20;0.90;;;;;;;10.07;82.82;98046.56;105149;1271;76015;-27
2022/05/23 00:03:04;;;;;;;1.60;0.80;;;;;;;10.16;82.18;98049.48;105084;1271;74395;-27
2022/05/23 00:05:33;;;;;;;1.20;1.10;;;;;;;10.19;82.06;98046.96;104982;1271;61015;-27
2022/05/23 00:08:03;;;;;;;0.90;0.90;;;;;;;10.01;82.62;98047.96;104900;1271;61006;-27
2022/05/23 00:10:32;;;;;;;1.80;0.80;;;;;;;9.82;83.63;98046.77;104804;1272;75596;-27
2022/05/23 00:13:02;;;;;;;1.30;0.90;;;;;;;10.07;82.82;98048.25;105084;1274;75850;-27
2022/05/23 00:15:35;;;;;;;1.10;1.00;;;;;;;10.35;81.69;98044.11;105098;1271;74886;-27
2022/05/23 00:18:05;;;;;;;1.70;1.20;;;;;;;10.23;81.89;98044.89;104806;1274;61918;-27
2022/05/23 00:20:34;;;;;;;1.50;1.00;;;;;;;10.01;82.64;98045.72;105060;1271;62073;-27
2022/05/23 00:23:03;;;;;;;0.80;0.50;;;;;;;9.90;83.68;98048.10;104874;1271;75871;-26
2022/05/23 00:25:32;;;;;;;1.70;1.10;;;;;;;10.12;82.85;98048.63;105016;1271;75907;-27
2022/05/23 00:28:01;;;;;;;1.30;0.80;;;;;;;10.36;81.65;98047.10;105099;1274;73400;-26
2022/05/23 00:30:30;;;;;;;3.10;1.10;;;;;;;10.38;81.77;98049.64;105149;1271;61138;-26
2022/05/23 00:35:51;;;;;;;2.10;1.10;;;;;;;9.95;83.49;98053.48;104961;1274;74704;-24
2022/05/23 00:38:20;;;;;;;0.90;0.80;;;;;;;9.69;84.76;98054.96;104678;1271;75493;-24
2022/05/23 00:43:13;;;;;;;1.40;1.00;;;;;;;10.07;83.68;98055.36;104951;1271;73543;-25
2022/05/23 00:43:50;;;;;;;1.50;1.00;;;;;;;10.32;82.51;98053.84;104976;1274;61825;-24
2022/05/23 00:46:19;;;;;;;1.40;0.90;;;;;;;10.11;82.99;98055.36;104930;1271;62050;-24
2022/05/23 00:48:48;;;;;;;1.10;1.00;;;;;;;10.05;83.47;98056.27;104855;1272;76311;-24
2022/05/23 00:51:17;;;;;;;0.70;0.70;;;;;;;9.89;84.14;98054.06;104944;1274;76042;-24
2022/05/23 00:53:50;;;;;;;1.30;1.00;;;;;;;10.13;83.48;98053.39;104904;1271;74375;-24
2022/05/23 00:56:22;;;;;;;2.10;0.80;;;;;;;10.45;81.91;98059.21;104762;1271;62170;-24
2022/05/23 00:58:53;;;;;;;0.80;0.70;;;;;;;10.32;82.00;98058.52;104973;1271;61787;-24
2022/05/23 01:01:24;;;;;;;1.20;1.10;;;;;;;10.23;82.84;98059.23;105017;1272;75562;-24
2022/05/23 01:03:53;;;;;;;1.00;0.70;;;;;;;9.97;83.63;98060.95;104941;1272;74979;-24
2022/05/23 01:06:22;;;;;;;0.90;0.60;;;;;;;9.99;83.89;98058.73;104936;1271;74326;-24
2022/05/23 01:08:55;;;;;;;1.40;1.00;;;;;;;10.37;82.37;98062.05;104896;1271;62607;-24
2022/05/23 01:11:24;;;;;;;1.30;0.70;;;;;;;10.32;82.27;98061.84;104884;1271;62199;-24
2022/05/23 01:13:53;;;;;;;1.70;0.90;;;;;;;10.14;82.93;98061.63;105134;1271;75232;-24
2022/05/23 01:16:24;;;;;;;1.00;0.90;;;;;;;9.89;84.22;98060.83;105073;1274;75970;-24
2022/05/23 01:18:58;;;;;;;1.60;0.70;;;;;;;9.81;84.81;98065.21;104769;1271;74166;-24
2022/05/23 01:21:55;;;;;;;1.60;0.70;;;;;;;10.25;83.22;98065.08;105060;1271;62507;-24
2022/05/23 01:24:25;;;;;;;0.70;0.60;;;;;;;10.45;82.06;98061.88;104824;1272;62336;-24
2022/05/23 01:26:57;;;;;;;2.30;0.80;;;;;;;10.30;82.37;98063.57;104878;1271;75410;-23
2022/05/23 01:29:38;;;;;;;0.70;0.70;;;;;;;10.06;83.66;98062.39;104960;1271;76042;-24
2022/05/23 01:32:11;;;;;;;0.70;0.70;;;;;;;9.87;84.68;98064.90;105103;1271;74347;-23
2022/05/23 01:34:44;;;;;;;0.90;0.70;;;;;;;10.27;83.56;98066.70;105113;1274;61766;-24
2022/05/23 01:37:16;;;;;;;1.40;0.90;;;;;;;10.62;81.85;98065.45;104864;1271;62081;-24
2022/05/23 01:40:16;;;;;;;1.90;0.80;;;;;;;10.49;81.83;98067.33;105024;1271;75328;-22
2022/05/23 01:42:54;;;;;;;0.70;0.50;;;;;;;10.29;82.67;98066.32;105073;1272;76058;-24
2022/05/23 01:45:26;;;;;;;1.20;1.00;;;;;;;9.97;83.70;98062.33;105173;1271;74440;-24
2022/05/23 01:47:57;;;;;;;1.00;0.50;;;;;;;9.79;85.17;98065.98;104909;1271;63692;-24
2022/05/23 01:50:26;;;;;;;0.70;0.70;;;;;;;10.31;83.49;98067.45;104390;1271;410085;-24
2022/05/23 01:53:00;;;;;;;1.90;0.60;;;;;;;10.44;82.21;98065.80;105013;1271;73428;-23
2022/05/23 01:55:36;;;;;;;1.40;0.80;;;;;;;10.41;82.22;98066.92;105047;1271;75973;-23
2022/05/23 01:58:13;;;;;;;1.00;0.80;;;;;;;10.27;82.80;98070.11;105099;1271;74396;-24
2022/05/23 02:03:34;;;;;;;0.60;0.50;;;;;;;9.85;84.94;98067.45;104798;1271;61019;-23
2022/05/23 02:06:03;;;;;;;0.60;0.60;;;;;;;10.45;83.00;98069.10;105058;1271;73580;-23
2022/05/23 02:08:32;;;;;;;0.60;0.50;;;;;;;10.67;81.50;98072.92;105124;1274;76922;-23
2022/05/23 02:11:01;;;;;;;1.00;0.60;;;;;;;10.53;81.63;98070.60;105062;1271;73806;-23
2022/05/23 02:13:41;;;;;;;0.80;0.60;;;;;;;10.38;82.27;98073.42;104793;1274;61178;-23
2022/05/23 02:16:12;;;;;;;0.80;0.70;;;;;;;10.16;82.92;98076.35;104727;1272;62036;-23
2022/05/23 02:18:43;;;;;;;0.40;0.40;;;;;;;9.99;84.23;98076.90;104870;1271;76094;-24
2022/05/23 02:21:13;;;;;;;3.90;0.60;;;;;;;10.36;83.45;98076.20;104881;1271;76030;-23
2022/05/23 02:23:43;;;;;;;0.80;0.70;;;;;;;10.72;81.24;98074.39;105012;1271;74465;-21
2022/05/23 02:26:11;;;;;;;0.70;0.60;;;;;;;10.82;80.62;98077.50;105082;1271;61118;-22
2022/05/23 02:28:51;;;;;;;0.90;0.60;;;;;;;10.65;81.17;98080.25;105022;1274;61178;-23
2022/05/23 02:31:27;;;;;;;2.10;0.90;;;;;;;10.43;82.09;98080.58;104917;1271;75536;-23
2022/05/23 02:34:00;;;;;;;0.40;0.40;;;;;;;10.24;83.20;98079.40;104940;1271;75399;-23
2022/05/23 02:36:37;;;;;;;0.60;0.30;;;;;;;10.59;82.76;98079.21;105060;1271;74433;-23
2022/05/23 02:39:07;;;;;;;1.40;0.60;;;;;;;11.08;80.15;98083.13;105110;1271;62280;-23
2022/05/23 02:41:36;;;;;;;0.90;0.60;;;;;;;10.94;79.99;98087.32;104941;1274;61104;-24
2022/05/23 02:44:05;;;;;;;1.10;1.00;;;;;;;10.34;82.65;98090.27;105117;1271;75384;-23
2022/05/23 02:46:35;;;;;;;2.60;1.70;;;;;;;10.03;83.50;98094.23;105128;1272;76117;-22
2022/05/23 02:49:07;;;;;;;1.30;1.00;;;;;;;9.87;84.97;98092.79;105102;1271;74784;-22
2022/05/23 02:51:38;;;;;;;1.70;1.30;;;;;;;10.32;83.09;98093.63;105135;1271;61171;-22
2022/05/23 02:54:08;;;;;;;3.40;1.60;;;;;;;10.48;82.50;98097.83;105109;1271;61006;-23
2022/05/23 02:56:37;;;;;;;2.00;1.30;;;;;;;10.43;82.70;98099.51;105129;1271;74542;-23
2022/05/23 02:59:06;;;;;;;1.80;1.40;;;;;;;10.49;82.46;98101.17;105015;1271;76091;-23
2022/05/23 03:03:01;;;;;;;3.10;2.30;;;;;;;10.22;83.05;98100.47;105009;1271;74469;-23
2022/05/23 03:04:33;;;;;;;3.20;2.50;;;;;;;9.95;84.46;98101.79;104927;1271;61722;-23
2022/05/23 03:07:02;;;;;;;3.40;2.20;;;;;;;9.97;84.22;98105.52;104996;1271;61173;-23
2022/05/23 03:09:32;;;;;;;6.30;3.10;;;;;;;10.25;82.90;98104.85;104882;1271;75718;-23
2022/05/23 03:12:03;;;;;;;4.20;3.00;;;;;;;9.96;84.09;98111.71;105085;1271;76044;-23
2022/05/23 03:14:32;;;;;;;4.70;3.30;;;;;;;10.06;84.01;98110.98;105039;1271;73392;-23
2022/05/23 03:17:02;;;;;;;3.40;2.90;;;;;;;9.79;84.74;98112.09;105144;1271;63999;-24
2022/05/23 03:19:37;;;;;;;4.60;2.50;;;;;;;10.32;83.33;98110.95;104867;1271;61146;-23
2022/05/23 03:27:45;;;;;;;4.00;2.90;;;;;;;10.39;81.78;98117.09;105143;1271;74211;-23
2022/05/23 03:30:22;;;;;;;2.80;2.20;;;;;;;9.99;84.21;98121.09;105119;1271;62669;-23
2022/05/23 03:32:57;;;;;;;3.20;2.00;;;;;;;10.40;82.80;98121.45;105135;1271;61920;-23
2022/05/23 03:35:27;;;;;;;2.60;2.20;;;;;;;10.76;81.17;98127.26;105154;1271;74568;-23
2022/05/23 03:37:56;;;;;;;2.80;2.30;;;;;;;10.73;81.21;98129.83;104806;1274;75996;-23
2022/05/23 03:40:26;;;;;;;3.30;2.60;;;;;;;10.76;80.90;98132.30;105113;1273;74645;-23
2022/05/23 03:42:57;;;;;;;4.10;2.50;;;;;;;10.58;81.72;98131.90;104669;1274;61112;-23
2022/05/23 03:45:27;;;;;;;1.90;1.30;;;;;;;10.44;82.85;98134.30;104799;1271;61332;-23
2022/05/23 03:47:56;;;;;;;2.90;2.10;;;;;;;10.92;81.48;98136.71;104936;1274;75555;-23
2022/05/23 03:50:27;;;;;;;4.60;3.00;;;;;;;11.03;79.73;98137.67;104815;1273;76005;-23
2022/05/23 03:52:57;;;;;;;2.80;2.50;;;;;;;11.03;80.42;98143.04;104800;1274;72318;-23
2022/05/23 03:55:28;;;;;;;3.70;3.10;;;;;;;10.97;80.47;98147.14;105046;1271;61166;-23
2022/05/23 03:58:34;;;;;;;4.50;2.80;;;;;;;10.39;82.43;98144.48;104647;1277;62566;-23
2022/05/23 04:01:37;;;;;;;3.10;2.40;;;;;;;10.34;83.05;98141.14;104746;1274;75592;-23
2022/05/23 04:04:33;;;;;;;3.60;2.80;;;;;;;10.93;81.02;98144.23;104701;1274;76296;-23
2022/05/23 04:07:37;;;;;;;2.80;2.50;;;;;;;10.84;81.37;98152.52;104869;1272;75192;-23
2022/05/23 04:10:25;;;;;;;3.20;2.90;;;;;;;10.68;81.15;98151.80;104870;1274;61869;-23
2022/05/23 04:12:54;;;;;;;4.10;3.40;;;;;;;10.62;81.84;98152.92;105088;1274;62112;-23
2022/05/23 04:15:24;;;;;;;3.10;2.00;;;;;;;10.27;83.11;98151.48;105111;1273;75269;-24
2022/05/23 04:17:53;;;;;;;3.60;3.00;;;;;;;10.64;82.35;98155.79;105111;1274;76775;-23
2022/05/23 04:20:22;;;;;;;6.20;3.60;;;;;;;10.65;81.68;98157.61;105006;1272;74384;-23
2022/05/23 04:23:02;;;;;;;4.60;3.50;;;;;;;10.41;82.79;98160.27;105051;1271;61659;-23
2022/05/23 04:25:31;;;;;;;4.50;2.90;;;;;;;10.69;82.59;98160.38;104921;1271;61054;-23
2022/05/23 04:28:01;;;;;;;5.40;3.70;;;;;;;10.59;82.47;98160.24;105105;1271;75746;-23
2022/05/23 04:30:30;;;;;;;3.50;2.40;;;;;;;10.12;83.76;98160.86;105022;1272;76025;-23
2022/05/23 04:35:50;;;;;;;3.60;3.20;;;;;;;10.86;82.31;98163.98;104841;1274;62198;-23
2022/05/23 04:38:21;;;;;;;5.70;3.80;;;;;;;10.95;80.96;98161.70;104650;1271;61019;-23
2022/05/23 04:40:50;;;;;;;4.40;3.20;;;;;;;10.68;82.15;98159.81;104835;1271;75532;-23
2022/05/23 04:43:19;;;;;;;9.40;4.10;;;;;;;10.46;82.50;98160.77;105093;1272;76161;-23
2022/05/23 04:45:49;;;;;;;7.60;4.30;;;;;;;10.41;83.34;98162.50;104985;1271;72786;-23
2022/05/23 04:51:39;;;;;;;14.00;8.00;;;;;;;11.07;81.85;98163.13;104885;1271;61047;-23
2022/05/23 04:54:08;;;;;;;12.40;7.10;;;;;;;10.69;82.36;98165.97;104924;1271;74980;-22
2022/05/23 04:56:37;;;;;;;7.00;4.00;;;;;;;10.22;83.83;98167.73;105147;1274;76084;-22
2022/05/23 04:59:09;;;;;;;13.70;6.70;;;;;;;10.69;82.17;98167.33;104787;1274;74744;-23
2022/05/23 05:01:38;;;;;;;13.70;7.70;;;;;;;10.94;81.15;98169.95;104807;1274;61833;-22
2022/05/23 05:04:07;;;;;;;11.60;7.50;;;;;;;10.75;79.66;98169.14;104943;1271;61773;-23
2022/05/23 05:06:39;;;;;;;7.60;4.70;;;;;;;10.48;81.38;98172.63;104937;1271;72668;-23
2022/05/23 05:09:09;;;;;;;8.90;7.10;;;;;;;10.12;82.15;98176.80;104972;1272;76335;-23
2022/05/23 05:11:38;;;;;;;7.80;4.40;;;;;;;10.24;82.59;98181.10;105095;1271;74412;-23
2022/05/23 05:14:12;;;;;;;4.80;3.80;;;;;;;10.83;80.30;98181.84;104774;1271;61673;-23
2022/05/23 05:16:48;;;;;;;5.20;3.20;;;;;;;11.00;80.56;98186.64;104920;1271;61222;-23
2022/05/23 05:19:17;;;;;;;5.00;4.30;;;;;;;11.15;79.73;98192.31;104685;1271;74571;-23
2022/05/23 05:22:06;;;;;;;6.00;4.40;;;;;;;10.63;80.88;98194.81;104819;1271;73952;-24
2022/05/23 05:24:54;;;;;;;3.80;2.50;;;;;;;10.71;81.42;98199.04;105114;1271;74552;-23
2022/05/23 05:27:45;;;;;;;4.10;2.90;;;;;;;11.40;79.07;98201.86;105140;1271;62183;-24
2022/05/23 05:30:19;;;;;;;6.00;3.50;;;;;;;11.59;76.31;98203.44;104934;1271;61078;-24
2022/05/23 05:32:54;;;;;;;5.90;4.10;;;;;;;10.96;78.03;98206.48;104731;1271;75572;-23
2022/05/23 05:35:39;;;;;;;4.00;3.50;;;;;;;11.24;79.58;98208.30;104760;1271;75744;-24
2022/05/23 05:38:28;;;;;;;4.90;4.00;;;;;;;11.03;79.62;98209.79;104672;1274;74375;-24
2022/05/23 05:41:11;;;;;;;4.20;2.80;;;;;;;11.28;80.35;98213.83;104656;1271;61660;-24
2022/05/23 05:43:48;;;;;;;5.80;3.60;;;;;;;11.81;77.60;98216.07;104684;1271;62115;-25
2022/05/23 05:46:22;;;;;;;4.90;3.60;;;;;;;11.56;76.44;98213.81;104716;1271;75600;-25
2022/05/23 05:49:01;;;;;;;7.40;4.40;;;;;;;11.80;75.95;98216.52;104820;1271;76044;-25
2022/05/23 05:51:31;;;;;;;8.30;5.50;;;;;;;11.02;78.28;98215.45;104684;1271;73354;-26
2022/05/23 05:54:13;;;;;;;22.10;13.00;;;;;;;11.25;77.77;98215.43;104914;1271;61071;-26
2022/05/23 05:56:48;;;;;;;10.80;6.40;;;;;;;10.94;78.54;98213.42;104619;1271;62075;-25
2022/05/23 05:59:17;;;;;;;5.10;3.10;;;;;;;11.15;80.13;98213.28;104646;1271;75644;-26
2022/05/23 06:01:47;;;;;;;4.20;3.10;;;;;;;12.12;77.56;98212.86;104825;1271;74987;-26
2022/05/23 06:04:17;;;;;;;27.90;12.40;;;;;;;12.70;74.53;98209.24;104910;1271;74454;-26
2022/05/23 06:12:31;;;;;;;20.80;10.90;;;;;;;12.46;73.62;98207.15;104947;1271;75724;-26
2022/05/23 06:15:18;;;;;;;11.10;6.30;;;;;;;11.98;75.88;98212.11;104917;1271;75983;-26
2022/05/23 06:17:51;;;;;;;3.60;2.60;;;;;;;12.15;75.75;98214.17;104905;1271;72703;-26
2022/05/23 06:20:23;;;;;;;7.00;3.40;;;;;;;12.78;74.04;98214.27;104786;1271;62422;-27
2022/05/23 06:22:51;;;;;;;10.10;4.50;;;;;;;12.80;73.21;98213.02;105109;1271;61287;-26
2022/05/23 06:25:21;;;;;;;9.10;4.50;;;;;;;12.73;73.14;98217.41;105170;1271;75275;-26
2022/05/23 06:27:50;;;;;;;12.70;7.20;;;;;;;12.74;73.04;98223.98;104984;1271;75082;-26
2022/05/23 06:30:25;;;;;;;6.30;4.00;;;;;;;12.86;73.14;98225.33;104940;1270;74430;-26
2022/05/23 06:33:05;;;;;;;5.20;4.60;;;;;;;12.91;72.11;98223.23;104945;1271;61714;-26
2022/05/23 06:35:54;;;;;;;8.40;4.30;;;;;;;12.75;72.50;98221.71;104883;1271;62025;-25
2022/05/23 06:38:25;;;;;;;11.80;6.90;;;;;;;12.78;73.14;98223.02;104909;1271;76342;-26
2022/05/23 06:41:07;;;;;;;57.30;36.60;;;;;;;12.76;73.12;98224.29;104944;1271;76136;-26
2022/05/23 06:43:59;;;;;;;20.50;11.50;;;;;;;13.15;70.61;98219.36;104843;1271;74406;-26
2022/05/23 06:46:30;;;;;;;10.00;5.60;;;;;;;13.81;70.00;98223.73;104882;1271;61089;-25
2022/05/23 06:49:18;;;;;;;7.50;5.20;;;;;;;14.10;70.17;98229.04;104834;1271;61062;-26
2022/05/23 06:52:26;;;;;;;5.70;4.30;;;;;;;13.57;68.95;98223.34;104385;1277;75553;-26
2022/05/23 06:55:14;;;;;;;9.20;3.70;;;;;;;13.84;66.22;98230.20;104319;1277;75984;-26
2022/05/23 06:57:48;;;;;;;7.00;5.30;;;;;;;14.16;68.00;98229.77;104713;1271;74454;-26
2022/05/23 07:00:18;;;;;;;4.60;3.70;;;;;;;14.24;66.45;98231.75;104859;1271;61141;-26
2022/05/23 07:02:57;;;;;;;10.30;6.70;;;;;;;14.63;66.68;98235.23;104658;1271;62035;-25
2022/05/23 07:14:31;;;;;;;11.00;4.10;;;;;;;14.39;66.38;98231.48;104842;1271;61143;-26
2022/05/23 07:17:02;;;;;;;4.60;3.10;;;;;;;13.62;64.68;98229.65;104681;1274;61160;-25
2022/05/23 07:19:51;;;;;;;4.00;3.10;;;;;;;13.51;65.57;98236.42;104993;1271;74983;-25
2022/05/23 07:22:21;;;;;;;5.90;2.70;;;;;;;13.61;65.56;98232.52;104939;1271;73954;-25
2022/05/23 07:24:49;;;;;;;6.60;3.30;;;;;;;13.97;65.38;98235.16;104685;1272;74700;-25
2022/05/23 07:27:25;;;;;;;9.90;4.10;;;;;;;13.89;65.90;98233.17;104772;1271;61243;-26
2022/05/23 07:29:55;;;;;;;6.60;3.40;;;;;;;13.87;65.50;98234.13;104638;1271;61855;-25
2022/05/23 07:32:25;;;;;;;4.20;3.10;;;;;;;13.73;65.84;98234.77;104651;1274;75592;-25
2022/05/23 07:34:54;;;;;;;3.60;2.80;;;;;;;13.48;66.30;98237.91;104920;1271;75805;-25
2022/05/23 07:37:24;;;;;;;12.60;7.10;;;;;;;13.72;66.07;98243.89;104762;1271;74488;-25
2022/05/23 07:39:56;;;;;;;20.80;6.90;;;;;;;14.32;65.48;98246.16;104788;1271;61128;-25
2022/05/23 07:42:40;;;;;;;5.40;3.00;;;;;;;14.98;61.23;98248.77;104781;1271;61929;-25
2022/05/23 07:45:11;;;;;;;8.80;5.00;;;;;;;15.13;58.88;98247.06;104917;1271;75667;-25
2022/05/23 07:47:40;;;;;;;7.80;3.90;;;;;;;15.44;60.05;98246.52;104858;1271;76069;-25
2022/05/23 07:50:24;;;;;;;6.20;4.30;;;;;;;15.13;57.22;98248.92;105135;1268;75170;-26
2022/05/23 08:01:29;;;;;;;15.20;8.40;;;;;;;16.62;54.85;98259.16;104799;1271;75784;-25
2022/05/23 08:04:00;;;;;;;6.10;3.00;;;;;;;15.79;53.83;98258.66;104975;1271;74730;-25
2022/05/23 08:06:36;;;;;;;6.00;3.20;;;;;;;16.06;53.89;98261.49;105121;1271;62078;-25
2022/05/23 08:09:07;;;;;;;3.50;2.20;;;;;;;16.48;51.80;98260.98;105003;1271;62012;-25
2022/05/23 08:11:40;;;;;;;5.80;3.30;;;;;;;17.07;51.86;98254.23;104800;1271;75649;-24
2022/05/23 08:14:14;;;;;;;5.70;3.10;;;;;;;17.45;50.13;98253.92;104797;1271;76146;-24
2022/05/23 08:16:56;;;;;;;12.80;9.70;;;;;;;17.87;51.52;98257.38;105013;1271;74344;-24
2022/05/23 08:19:34;;;;;;;10.70;9.50;;;;;;;17.08;50.66;98257.15;105075;1271;61835;-25
2022/05/23 08:22:07;;;;;;;3.10;2.10;;;;;;;17.20;49.10;98258.39;104817;1271;62780;-24
2022/05/23 08:24:39;;;;;;;4.00;1.90;;;;;;;17.66;49.13;98256.02;104692;1271;75540;-24
2022/05/23 08:27:08;;;;;;;3.00;1.60;;;;;;;17.91;47.42;98256.27;104943;1271;75404;-25
2022/05/23 08:29:45;;;;;;;4.10;1.50;;;;;;;18.01;50.03;98256.02;104896;1270;75501;-25
2022/05/23 08:32:14;;;;;;;2.00;1.70;;;;;;;18.31;48.13;98261.92;104925;1271;61070;-25
2022/05/23 08:34:50;;;;;;;1.90;1.50;;;;;;;18.76;47.71;98260.20;104823;1271;61200;-24
2022/05/23 08:37:19;;;;;;;4.30;1.70;;;;;;;19.14;47.42;98264.01;104774;1272;74906;-24
2022/05/23 08:39:49;;;;;;;3.40;1.80;;;;;;;19.14;47.62;98266.27;104801;1271;76488;-24
2022/05/23 08:42:29;;;;;;;2.50;1.80;;;;;;;19.01;47.93;98263.69;104953;1271;74404;-24
2022/05/23 08:45:14;;;;;;;4.60;1.70;;;;;;;18.34;47.14;98264.72;104680;1273;61834;-24
2022/05/23 08:48:08;;;;;;;3.40;2.00;;;;;;;17.47;49.01;98267.70;104895;1271;61750;-25
2022/05/23 08:51:10;;;;;;;3.20;2.00;;;;;;;17.44;50.57;98265.64;105130;1271;75692;-25
2022/05/23 08:54:21;;;;;;;2.80;1.70;;;;;;;17.29;50.13;98269.12;105159;1271;75728;-25
2022/05/23 08:57:16;;;;;;;2.50;1.60;;;;;;;17.00;50.64;98275.04;105111;1271;74248;-25
2022/05/23 08:59:47;;;;;;;3.20;1.80;;;;;;;16.89;49.00;98276.27;104866;1271;62371;-24
2022/05/23 09:02:27;;;;;;;3.30;1.50;;;;;;;16.65;48.96;98277.61;104742;1271;61089;-25
2022/05/23 09:05:10;;;;;;;6.70;1.50;;;;;;;16.72;48.99;98276.52;104783;1272;75410;-25
2022/05/23 09:07:59;;;;;;;1.60;1.50;;;;;;;16.87;46.54;98274.71;104927;1272;76010;-24
2022/05/23 09:11:05;;;;;;;2.50;1.50;;;;;;;17.11;49.01;98272.33;104901;1274;74439;-24
2022/05/23 09:13:40;;;;;;;2.20;1.70;;;;;;;17.39;46.50;98270.09;104569;1271;61139;-25
2022/05/23 09:16:12;;;;;;;4.10;1.70;;;;;;;17.40;46.77;98269.64;104860;1271;62021;-25
2022/05/23 09:18:50;;;;;;;2.30;1.80;;;;;;;17.41;46.44;98272.06;104768;1271;75335;-25
2022/05/23 09:21:19;;;;;;;11.90;5.80;;;;;;;17.44;47.75;98270.99;104932;1271;76026;-24
2022/05/23 09:23:52;;;;;;;10.40;5.00;;;;;;;17.13;46.25;98277.13;105101;1271;74375;-25
2022/05/23 09:26:27;;;;;;;2.90;2.10;;;;;;;17.38;47.71;98274.05;104920;1271;61135;-25
2022/05/23 09:28:56;;;;;;;5.70;1.60;;;;;;;17.16;47.26;98275.45;104788;1271;61036;-25
2022/05/23 09:31:52;;;;;;;4.90;1.40;;;;;;;17.07;48.05;98280.86;104882;1271;75700;-25
2022/05/23 09:34:45;;;;;;;4.70;1.70;;;;;;;17.61;44.48;98275.48;104667;1274;76069;-25
2022/05/23 09:37:22;;;;;;;2.00;1.20;;;;;;;18.24;44.80;98271.41;104850;1271;74293;-25
2022/05/23 09:39:56;;;;;;;1.90;1.40;;;;;;;18.00;45.16;98270.67;104757;1271;61144;-25
2022/05/23 09:48:22;;;;;;;5.60;1.50;;;;;;;18.62;43.26;98274.77;104801;1274;74295;-25
2022/05/23 09:51:07;;;;;;;4.30;1.50;;;;;;;18.21;40.38;98274.23;105094;1271;74570;-25
2022/05/23 09:53:52;;;;;;;4.30;3.30;;;;;;;17.40;42.40;98270.71;105116;1271;61188;-25
2022/05/23 09:56:31;;;;;;;16.00;14.10;;;;;;;17.78;41.79;98273.61;104910;1271;61140;-25
2022/05/23 09:59:26;;;;;;;12.30;7.30;;;;;;;18.44;40.53;98270.38;104810;1271;75509;-25
2022/05/23 10:01:55;;;;;;;18.40;11.90;;;;;;;18.17;41.16;98273.25;104708;1274;76050;-25
2022/05/23 10:04:29;;;;;;;12.30;7.50;;;;;;;18.72;40.77;98271.52;104681;1274;73503;-25
2022/05/23 10:06:59;;;;;;;5.90;1.90;;;;;;;19.16;40.48;98272.65;104755;1271;61180;-25
2022/05/23 10:09:34;;;;;;;2.40;1.50;;;;;;;18.88;42.15;98270.20;104723;1271;62065;-25
2022/05/23 10:12:23;;;;;;;1.80;1.50;;;;;;;18.32;42.47;98272.39;104804;1271;76499;-25
2022/05/23 10:15:02;;;;;;;2.60;1.40;;;;;;;18.43;42.37;98273.02;104804;1271;74200;-25
2022/05/23 10:17:34;;;;;;;1.60;1.30;;;;;;;18.42;41.94;98270.45;104640;1271;74327;-25
2022/05/23 10:20:24;;;;;;;2.30;1.70;;;;;;;18.68;39.78;98270.41;104636;1271;62351;-25
2022/05/23 10:22:58;;;;;;;3.00;1.50;;;;;;;18.62;41.02;98270.05;104942;1271;62010;-25
2022/05/23 10:25:31;;;;;;;1.90;1.30;;;;;;;18.71;39.53;98274.36;104774;1271;75397;-24
2022/05/23 10:28:20;;;;;;;;;;;;;;;19.23;38.34;98275.67;104812;1271;74849;-24
2022/05/23 10:31:01;;;;;;;1.80;1.40;;;;;;;19.71;37.74;98276.98;104741;1271;74574;-25
2022/05/23 10:33:33;;;;;;;1.90;1.20;;;;;;;19.79;37.60;98275.27;104646;1272;61833;-24
2022/05/23 10:36:17;;;;;;;2.10;1.40;;;;;;;19.26;39.60;98275.55;105083;1271;61828;-25
2022/05/23 10:42:09;;;;;;;2.30;1.20;;;;;;;18.10;40.26;98277.02;105028;1274;76108;-25
2022/05/23 10:44:57;;;;;;;;;;;;;;;17.88;41.24;98275.36;105099;1271;74391;-23
2022/05/23 10:47:25;;;;;;;5.00;1.60;;;;;;;17.50;42.35;98272.63;105135;1271;62163;-24
2022/05/23 10:50:06;;;;;;;1.40;1.30;;;;;;;17.31;43.44;98274.60;105114;1271;62332;-24
2022/05/23 10:53:02;;;;;;;3.20;1.50;;;;;;;17.25;43.51;98271.46;104974;1271;74242;-24
2022/05/23 10:56:02;;;;;;;3.10;1.30;;;;;;;16.99;44.86;98267.78;104979;1271;75951;-24
2022/05/23 10:58:40;;;;;;;4.90;1.50;;;;;;;16.70;44.89;98269.22;104745;1271;72137;-24
2022/05/23 11:01:40;;;;;;;3.50;1.70;;;;;;;16.86;46.66;98266.70;104827;1272;61101;-24
2022/05/23 11:04:17;;;;;;;2.50;1.70;;;;;;;16.94;50.26;98259.91;104769;1271;61885;-24
2022/05/23 11:06:53;;;;;;;3.00;1.90;;;;;;;16.67;50.09;98260.15;104661;1271;76575;-24
2022/05/23 11:09:29;;;;;;;1.90;1.70;;;;;;;16.57;52.23;98264.29;104769;1271;77118;-24
2022/05/23 11:12:11;;;;;;;2.90;1.30;;;;;;;17.05;49.16;98263.84;104700;1271;75075;-24
2022/05/23 11:15:06;;;;;;;2.40;1.80;;;;;;;17.29;48.42;98268.21;104636;1271;63021;-24
2022/05/23 11:17:44;;;;;;;4.20;1.70;;;;;;;17.62;47.22;98266.45;104690;1274;61992;-24
2022/05/23 11:20:26;;;;;;;2.90;1.70;;;;;;;17.73;45.84;98267.79;104653;1271;74420;-24
2022/05/23 11:23:07;;;;;;;3.00;1.30;;;;;;;17.70;44.21;98262.10;104502;1271;75908;-24
2022/05/23 11:25:37;;;;;;;6.30;1.60;;;;;;;17.85;41.87;98261.40;104678;1271;74102;-24
2022/05/23 11:34:06;;;;;;;3.80;1.60;;;;;;;17.72;43.02;98257.66;104710;1271;76370;-24
2022/05/23 11:36:45;;;;;;;4.40;2.10;;;;;;;17.31;44.85;98260.59;104758;1272;75989;-24
2022/05/23 11:39:41;;;;;;;5.30;1.60;;;;;;;16.96;45.69;98268.40;104662;1271;75406;-24
2022/05/23 11:42:17;;;;;;;4.70;1.50;;;;;;;16.81;47.14;98273.42;104689;1274;63116;-26
2022/05/23 11:44:50;;;;;;;5.10;1.90;;;;;;;16.29;48.37;98275.81;104688;1271;61970;-24
2022/05/23 11:47:28;;;;;;;2.80;1.50;;;;;;;15.99;50.25;98271.98;104730;1271;74515;-24
2022/05/23 11:49:58;;;;;;;5.10;1.70;;;;;;;15.69;50.93;98274.13;104780;1271;74949;-25
2022/05/23 11:52:39;;;;;;;4.60;1.70;;;;;;;15.63;51.12;98276.26;104805;1274;75495;-25
2022/05/23 11:55:47;;;;;;;3.00;1.70;;;;;;;15.35;48.93;98274.85;104766;1274;62706;-25
2022/05/23 11:58:18;;;;;;;3.90;1.80;;;;;;;15.36;48.97;98282.13;104918;1273;63269;-26
2022/05/23 12:01:15;;;;;;;3.40;1.40;;;;;;;15.38;47.31;98279.95;104780;1271;76461;-27
2022/05/23 12:03:49;;;;;;;4.70;1.70;;;;;;;15.23;46.03;98284.04;104706;1271;77036;-26
2022/05/23 12:06:19;;;;;;;1.60;1.50;;;;;;;14.94;47.52;98293.52;104898;1271;75564;-25
2022/05/23 12:09:11;;;;;;;6.40;1.70;;;;;;;14.67;48.94;98301.70;104906;1271;62940;-26
2022/05/23 12:11:41;;;;;;;2.80;1.30;;;;;;;14.54;49.24;98305.80;104739;1274;62918;-26
2022/05/23 12:14:11;;;;;;;4.20;1.70;;;;;;;14.47;48.81;98302.36;104678;1271;75317;-25
2022/05/23 12:17:05;;;;;;;2.40;1.50;;;;;;;14.30;49.73;98303.82;104641;1271;77052;-26
2022/05/23 12:19:39;;;;;;;3.50;1.40;;;;;;;14.39;50.55;98306.02;104927;1272;75109;-27
2022/05/23 12:22:25;;;;;;;3.70;1.30;;;;;;;14.29;50.33;98302.02;104841;1271;63108;-26
2022/05/23 12:25:08;;;;;;;4.80;1.40;;;;;;;14.14;51.10;98302.01;104785;1271;63070;-25
2022/05/23 12:27:40;;;;;;;5.40;1.60;;;;;;;13.89;51.32;98302.79;104818;1271;76501;-26
2022/05/23 12:30:17;;;;;;;3.00;1.40;;;;;;;13.75;51.91;98306.23;104467;1271;76745;-24
2022/05/23 12:32:58;;;;;;;4.30;1.80;;;;;;;13.71;52.59;98303.16;104658;1271;75350;-25
2022/05/23 12:35:41;;;;;;;6.60;1.60;;;;;;;13.64;53.22;98302.31;104679;1271;63002;-26
2022/05/23 12:38:30;;;;;;;2.70;1.50;;;;;;;13.60;53.45;98302.90;104708;1271;63063;-25
2022/05/23 12:41:13;;;;;;;2.10;1.10;;;;;;;13.55;54.05;98304.65;104623;1271;76575;-26
2022/05/23 12:44:09;;;;;;;1.90;1.50;;;;;;;13.41;53.49;98300.02;104679;1274;76712;-25
2022/05/23 12:47:18;;;;;;;1.70;1.30;;;;;;;13.37;52.77;98301.90;104923;1271;74592;-26
2022/05/23 12:50:14;;;;;;;8.60;1.80;;;;;;;13.51;53.51;98304.20;104331;1280;63081;-25
2022/05/23 12:52:52;;;;;;;3.50;1.60;;;;;;;13.51;51.58;98300.93;104470;1281;63063;-25
2022/05/23 12:55:41;;;;;;;3.80;1.80;;;;;;;13.59;52.57;98299.92;104309;1280;76356;-26
2022/05/23 12:58:50;;;;;;;3.90;1.50;;;;;;;13.69;51.85;98300.08;104279;1278;77122;-26
2022/05/23 13:01:21;;;;;;;3.20;1.40;;;;;;;13.82;51.53;98301.27;104256;1280;75336;-26
2022/05/23 13:04:11;;;;;;;3.10;1.60;;;;;;;13.95;51.28;98295.02;104108;1280;62508;-26